Time;durP1;ratioP1;P1;durP2;ratioP2;P2;SDS_P1;SDS_P2;PMS_P1;PMS_P2;Temp;Humidity;BMP_temperature;BMP_pressure;BME280_temperature;BME280_humidity;BME280_pressure;Samples;Min_cycle;Max_cycle;Signal;HPM_P1;HPM_P2
2023/03/16 00:00:34;;;;;;;;;;;3.70;99.90;;;;;;5101432;28;19928;-78
2023/03/16 00:03:00;;;;;;;;;;;3.60;99.90;;;;;;5101882;27;19923;-79
2023/03/16 00:05:26;;;;;;;;;;;3.60;99.90;;;;;;5069312;28;19924;-79
2023/03/16 00:07:51;;;;;;;;;;;3.70;99.90;;;;;;5114054;28;19928;-78
2023/03/16 00:10:17;;;;;;;;;;;3.70;99.90;;;;;;5080179;28;20065;-78
2023/03/16 00:12:43;;;;;;;;;;;3.70;99.90;;;;;;5129228;27;19995;-79
2023/03/16 00:15:10;;;;;;;;;;;3.70;99.90;;;;;;5100091;28;20400;-78
2023/03/16 00:17:35;;;;;;;;;;;3.70;99.90;;;;;;5110537;28;20382;-79
2023/03/16 00:20:05;;;;;;;;;;;3.80;99.90;;;;;;5089491;28;19924;-79
2023/03/16 00:22:31;;;;;;;;;;;3.80;99.90;;;;;;5103470;28;19945;-79
2023/03/16 00:24:57;;;;;;;;;;;3.80;99.90;;;;;;5101201;28;20058;-79
2023/03/16 00:27:24;;;;;;;;;;;3.70;99.90;;;;;;5067294;28;19931;-79
2023/03/16 00:29:54;;;;;;;;;;;3.70;99.90;;;;;;5123248;27;19925;-79
2023/03/16 00:32:21;;;;;;;;;;;3.80;99.90;;;;;;5088403;28;19924;-78
2023/03/16 00:34:47;;;;;;;;;;;3.80;99.90;;;;;;5071710;28;19931;-78
2023/03/16 00:37:14;;;;;;;;;;;3.80;99.90;;;;;;5072814;28;19971;-78
2023/03/16 00:39:43;;;;;;;;;;;3.80;99.90;;;;;;5083770;28;19928;-78
2023/03/16 00:42:09;;;;;;;;;;;3.80;99.90;;;;;;5090038;28;19977;-79
2023/03/16 00:44:36;;;;;;;;;;;3.80;99.90;;;;;;5096922;28;19924;-78
2023/03/16 00:47:02;;;;;;;;;;;3.80;99.90;;;;;;5086857;28;20397;-78
2023/03/16 00:49:27;;;;;;;;;;;3.80;99.90;;;;;;5102436;28;19928;-78
2023/03/16 00:51:53;;;;;;;;;;;3.80;99.90;;;;;;5069898;28;19924;-78
2023/03/16 00:54:19;;;;;;;;;;;3.80;99.90;;;;;;5098451;28;19968;-78
2023/03/16 00:56:44;;;;;;;;;;;3.80;99.90;;;;;;5081744;28;20393;-78
2023/03/16 00:59:11;;;;;;;;;;;3.80;99.90;;;;;;5089904;28;19991;-78
2023/03/16 01:01:37;;;;;;;;;;;3.80;99.90;;;;;;5118847;28;19977;-79
2023/03/16 01:04:03;;;;;;;;;;;3.80;99.90;;;;;;5106956;28;19928;-78
2023/03/16 01:06:29;;;;;;;;;;;3.80;99.90;;;;;;5083934;28;20398;-79
2023/03/16 01:08:54;;;;;;;;;;;3.80;99.90;;;;;;5081715;28;20031;-78
2023/03/16 01:11:21;;;;;;;;;;;3.80;99.90;;;;;;5063461;28;19925;-78
2023/03/16 01:13:47;;;;;;;;;;;3.80;99.90;;;;;;5123463;28;20010;-78
2023/03/16 01:16:13;;;;;;;;;;;3.80;99.90;;;;;;5093895;28;19924;-79
2023/03/16 01:18:40;;;;;;;;;;;3.80;99.90;;;;;;5135764;28;19924;-78
2023/03/16 01:21:07;;;;;;;;;;;3.80;99.90;;;;;;5101154;28;19927;-79
2023/03/16 01:23:34;;;;;;;;;;;3.70;99.90;;;;;;5087944;28;20014;-78
2023/03/16 01:26:01;;;;;;;;;;;3.70;99.90;;;;;;5103454;28;19924;-78
2023/03/16 01:28:27;;;;;;;;;;;3.70;99.90;;;;;;5099565;28;19928;-78
2023/03/16 01:30:56;;;;;;;;;;;3.70;99.90;;;;;;5089429;28;19923;-78
2023/03/16 01:33:22;;;;;;;;;;;3.70;99.90;;;;;;5101040;28;20004;-79
2023/03/16 01:35:55;;;;;;;;;;;3.70;99.90;;;;;;5091084;28;19924;-79
2023/03/16 01:38:21;;;;;;;;;;;3.70;99.90;;;;;;5084765;28;20019;-79
2023/03/16 01:40:50;;;;;;;;;;;3.70;99.90;;;;;;5105473;28;20249;-78
2023/03/16 01:43:16;;;;;;;;;;;3.70;99.90;;;;;;5102150;28;20010;-78
2023/03/16 01:45:54;;;;;;;;;;;3.70;99.90;;;;;;5118972;28;19943;-78
2023/03/16 01:48:21;;;;;;;;;;;3.70;99.90;;;;;;5108132;28;19971;-79
2023/03/16 01:50:47;;;;;;;;;;;3.70;99.90;;;;;;5083400;28;19929;-79
2023/03/16 01:53:13;;;;;;;;;;;3.70;99.90;;;;;;5095434;28;19924;-79
2023/03/16 01:55:40;;;;;;;;;;;3.70;99.90;;;;;;5099769;28;19963;-78
2023/03/16 01:58:05;;;;;;;;;;;3.70;99.90;;;;;;5072287;28;19983;-79
2023/03/16 02:00:32;;;;;;;;;;;3.70;99.90;;;;;;5078669;27;20263;-79
2023/03/16 02:03:01;;;;;;;;;;;3.70;99.90;;;;;;5093726;27;19931;-79
2023/03/16 02:05:33;;;;;;;;;;;3.70;99.90;;;;;;5093441;28;19924;-79
2023/03/16 02:08:00;;;;;;;;;;;3.80;99.90;;;;;;5087247;28;19923;-79
2023/03/16 02:10:27;;;;;;;;;;;3.80;99.90;;;;;;5113202;28;19923;-79
2023/03/16 02:12:53;;;;;;;;;;;3.80;99.90;;;;;;5092249;28;19924;-79
2023/03/16 02:15:19;;;;;;;;;;;3.80;99.90;;;;;;5137401;27;19986;-79
2023/03/16 02:17:46;;;;;;;;;;;3.80;99.90;;;;;;5088859;28;19924;-79
2023/03/16 02:20:12;;;;;;;;;;;3.90;99.90;;;;;;5090165;27;19956;-79
2023/03/16 02:22:41;;;;;;;;;;;3.90;99.90;;;;;;5099257;27;19927;-80
2023/03/16 02:25:06;;;;;;;;;;;3.90;99.90;;;;;;5095341;28;19974;-78
2023/03/16 02:27:38;;;;;;;;;;;3.90;99.90;;;;;;5088323;28;19928;-79
2023/03/16 02:30:06;;;;;;;;;;;3.90;99.90;;;;;;5105759;27;19932;-79
2023/03/16 02:32:33;;;;;;;;;;;3.90;99.90;;;;;;5134455;27;19927;-79
2023/03/16 02:35:00;;;;;;;;;;;4.00;99.90;;;;;;5090596;28;20291;-78
2023/03/16 02:37:26;;;;;;;;;;;4.00;99.90;;;;;;5116513;28;19923;-79
2023/03/16 02:39:52;;;;;;;;;;;4.00;99.90;;;;;;5087880;28;19945;-79
2023/03/16 02:42:23;;;;;;;;;;;4.00;99.90;;;;;;5087066;28;19942;-79
2023/03/16 02:44:54;;;;;;;;;;;4.00;99.90;;;;;;5087421;28;19928;-79
2023/03/16 02:47:27;;;;;;;;;;;4.00;99.90;;;;;;5088075;28;19928;-78
2023/03/16 02:49:52;;;;;;;;;;;4.10;99.90;;;;;;5104762;28;20328;-79
2023/03/16 02:52:18;;;;;;;;;;;4.10;99.90;;;;;;5090601;28;20426;-78
2023/03/16 02:54:44;;;;;;;;;;;4.10;99.90;;;;;;5085910;28;19924;-79
2023/03/16 02:57:09;;;;;;;;;;;4.10;99.90;;;;;;5077582;28;19970;-78
2023/03/16 02:59:35;;;;;;;;;;;4.20;99.90;;;;;;5065880;28;19924;-79
2023/03/16 03:02:00;;;;;;;;;;;4.10;99.90;;;;;;5106582;27;19923;-79
2023/03/16 03:04:26;;;;;;;;;;;4.20;99.90;;;;;;5072969;28;19924;-79
2023/03/16 03:06:52;;;;;;;;;;;4.20;99.90;;;;;;5094165;28;19997;-79
2023/03/16 03:09:18;;;;;;;;;;;4.20;99.90;;;;;;5082204;28;19923;-79
2023/03/16 03:11:45;;;;;;;;;;;4.20;99.90;;;;;;5104857;27;19924;-78
2023/03/16 03:14:11;;;;;;;;;;;4.30;99.90;;;;;;5105354;27;19992;-78
2023/03/16 03:16:36;;;;;;;;;;;4.20;99.90;;;;;;5083562;28;20375;-79
2023/03/16 03:19:02;;;;;;;;;;;4.20;99.90;;;;;;5119062;27;20383;-79
2023/03/16 03:21:28;;;;;;;;;;;4.20;99.90;;;;;;5085314;28;19928;-79
2023/03/16 03:23:53;;;;;;;;;;;4.20;99.90;;;;;;5100628;28;20298;-79
2023/03/16 03:26:19;;;;;;;;;;;4.20;99.90;;;;;;5084757;28;19955;-79
2023/03/16 03:28:45;;;;;;;;;;;4.20;99.90;;;;;;5100676;28;20014;-78
2023/03/16 03:31:15;;;;;;;;;;;4.20;99.90;;;;;;5110082;27;20018;-79
2023/03/16 03:33:40;;;;;;;;;;;4.30;99.90;;;;;;5098704;28;19952;-79
2023/03/16 03:36:06;;;;;;;;;;;4.30;99.90;;;;;;5072115;28;20019;-79
2023/03/16 03:38:32;;;;;;;;;;;4.20;99.90;;;;;;5108445;28;19928;-79
2023/03/16 03:41:00;;;;;;;;;;;4.20;99.90;;;;;;5098934;28;20016;-78
2023/03/16 03:43:26;;;;;;;;;;;4.30;99.90;;;;;;5095266;28;19924;-78
2023/03/16 03:45:56;;;;;;;;;;;4.20;99.90;;;;;;5125727;27;20740;-79
2023/03/16 03:48:22;;;;;;;;;;;4.30;99.90;;;;;;5094090;28;19940;-78
2023/03/16 03:50:47;;;;;;;;;;;4.30;99.90;;;;;;5086766;28;20010;-79
2023/03/16 03:53:13;;;;;;;;;;;4.30;99.90;;;;;;5100476;27;19924;-79
2023/03/16 03:55:39;;;;;;;;;;;4.30;99.90;;;;;;5112674;28;19931;-79
2023/03/16 03:58:05;;;;;;;;;;;4.30;99.90;;;;;;5100533;28;19935;-79
2023/03/16 04:00:31;;;;;;;;;;;4.30;99.90;;;;;;5097064;28;19924;-79
2023/03/16 04:02:56;;;;;;;;;;;4.30;99.90;;;;;;5100188;28;20010;-79
2023/03/16 04:05:26;;;;;;;;;;;4.20;99.90;;;;;;5085612;28;19990;-79
2023/03/16 04:07:56;;;;;;;;;;;4.30;99.90;;;;;;5087378;28;19927;-79
2023/03/16 04:10:22;;;;;;;;;;;4.20;99.90;;;;;;5082413;28;19969;-78
2023/03/16 04:12:48;;;;;;;;;;;4.30;99.90;;;;;;5083667;28;20000;-79
2023/03/16 04:15:13;;;;;;;;;;;4.30;99.90;;;;;;5065295;28;19983;-79
2023/03/16 04:17:39;;;;;;;;;;;4.30;99.90;;;;;;5069746;28;20019;-79
2023/03/16 04:20:10;;;;;;;;;;;4.30;99.90;;;;;;5103841;28;20023;-79
2023/03/16 04:22:36;;;;;;;;;;;4.30;99.90;;;;;;5074153;28;19931;-79
2023/03/16 04:25:04;;;;;;;;;;;4.30;99.90;;;;;;5067906;28;19928;-78
2023/03/16 04:27:35;;;;;;;;;;;4.20;99.90;;;;;;5103066;28;20045;-78
2023/03/16 04:30:04;;;;;;;;;;;4.30;99.90;;;;;;5073028;28;19934;-78
2023/03/16 04:32:30;;;;;;;;;;;4.30;99.90;;;;;;5095306;28;20014;-79
2023/03/16 04:34:56;;;;;;;;;;;4.30;99.90;;;;;;5101460;28;20010;-78
2023/03/16 04:37:21;;;;;;;;;;;4.30;99.90;;;;;;5132243;27;19959;-78
2023/03/16 04:39:47;;;;;;;;;;;4.30;99.90;;;;;;5084576;28;20483;-79
2023/03/16 04:42:13;;;;;;;;;;;4.40;99.90;;;;;;5087509;28;19931;-79
2023/03/16 04:44:43;;;;;;;;;;;4.30;99.90;;;;;;5085570;28;20473;-78
2023/03/16 04:47:09;;;;;;;;;;;4.30;99.90;;;;;;5094233;28;19931;-78
2023/03/16 04:49:35;;;;;;;;;;;4.30;99.90;;;;;;5086101;28;20483;-79
2023/03/16 04:52:00;;;;;;;;;;;4.30;99.90;;;;;;5086466;28;19923;-79
2023/03/16 04:54:26;;;;;;;;;;;4.30;99.90;;;;;;5084868;28;19924;-79
2023/03/16 04:56:52;;;;;;;;;;;4.20;99.90;;;;;;5084723;28;19928;-78
2023/03/16 04:59:17;;;;;;;;;;;4.30;99.90;;;;;;5087107;28;19927;-79
2023/03/16 05:01:43;;;;;;;;;;;4.30;99.90;;;;;;5096908;28;20033;-78
2023/03/16 05:04:09;;;;;;;;;;;4.30;99.90;;;;;;5081033;28;19928;-79
2023/03/16 05:06:35;;;;;;;;;;;4.30;99.90;;;;;;5101969;28;20010;-79
2023/03/16 05:09:00;;;;;;;;;;;4.30;99.90;;;;;;5081118;28;19928;-78
2023/03/16 05:11:26;;;;;;;;;;;4.30;99.90;;;;;;5109187;28;19924;-78
2023/03/16 05:13:52;;;;;;;;;;;4.30;99.90;;;;;;5104052;28;20270;-78
2023/03/16 05:16:17;;;;;;;;;;;4.30;99.90;;;;;;5065180;28;19946;-79
2023/03/16 05:18:43;;;;;;;;;;;4.30;99.90;;;;;;5078240;28;19996;-79
2023/03/16 05:21:08;;;;;;;;;;;4.30;99.90;;;;;;5100772;28;19923;-78
2023/03/16 05:23:34;;;;;;;;;;;4.30;99.90;;;;;;5101082;28;19924;-79
2023/03/16 05:26:00;;;;;;;;;;;4.30;99.90;;;;;;5066000;28;19948;-78
2023/03/16 05:28:25;;;;;;;;;;;4.30;99.90;;;;;;5085554;28;19923;-78
2023/03/16 05:30:51;;;;;;;;;;;4.30;99.90;;;;;;5089727;28;20008;-78
2023/03/16 05:33:17;;;;;;;;;;;4.30;99.90;;;;;;5068019;28;19931;-80
2023/03/16 05:35:42;;;;;;;;;;;4.30;99.90;;;;;;5095029;27;19971;-78
2023/03/16 05:38:08;;;;;;;;;;;4.30;99.90;;;;;;5112709;28;19924;-79
2023/03/16 05:40:36;;;;;;;;;;;4.20;99.90;;;;;;5088808;28;19935;-79
2023/03/16 05:43:03;;;;;;;;;;;4.20;99.90;;;;;;5088918;28;20026;-78
2023/03/16 05:45:29;;;;;;;;;;;4.20;99.90;;;;;;5088255;28;19990;-79
2023/03/16 05:47:54;;;;;;;;;;;4.20;99.90;;;;;;5088528;28;19923;-79
2023/03/16 05:50:20;;;;;;;;;;;4.20;99.90;;;;;;5087543;28;19931;-79
2023/03/16 05:52:46;;;;;;;;;;;4.20;99.90;;;;;;5092008;28;19924;-78
2023/03/16 05:55:13;;;;;;;;;;;4.20;99.90;;;;;;5120464;27;19930;-79
2023/03/16 05:57:39;;;;;;;;;;;4.20;99.90;;;;;;5093034;28;19934;-79
2023/03/16 06:00:13;;;;;;;;;;;4.20;99.90;;;;;;5069084;28;20337;-78
2023/03/16 06:02:39;;;;;;;;;;;4.20;99.90;;;;;;5082596;28;19935;-79
2023/03/16 06:05:06;;;;;;;;;;;4.10;99.90;;;;;;5112026;28;19924;-79
2023/03/16 06:07:32;;;;;;;;;;;4.10;99.90;;;;;;5088037;28;19963;-78
2023/03/16 06:09:57;;;;;;;;;;;4.10;99.90;;;;;;5123556;28;19973;-79
2023/03/16 06:12:23;;;;;;;;;;;4.10;99.90;;;;;;5079239;28;19974;-78
2023/03/16 06:14:48;;;;;;;;;;;4.10;99.90;;;;;;5066003;28;19928;-78
2023/03/16 06:17:14;;;;;;;;;;;4.10;99.90;;;;;;5081467;28;19942;-78
2023/03/16 06:19:40;;;;;;;;;;;4.10;99.90;;;;;;5071940;28;19924;-79
2023/03/16 06:22:07;;;;;;;;;;;4.20;99.90;;;;;;5077033;28;19932;-79
2023/03/16 06:24:32;;;;;;;;;;;4.20;99.90;;;;;;5097484;27;19927;-79
2023/03/16 06:26:58;;;;;;;;;;;4.20;99.90;;;;;;5068636;28;19938;-79
2023/03/16 06:29:24;;;;;;;;;;;4.20;99.90;;;;;;5069239;28;19954;-78
2023/03/16 06:31:51;;;;;;;;;;;4.20;99.90;;;;;;5099568;28;19931;-78
2023/03/16 06:34:17;;;;;;;;;;;4.30;99.90;;;;;;5089024;27;19962;-78
2023/03/16 06:36:43;;;;;;;;;;;4.30;99.90;;;;;;5130166;27;19963;-79
2023/03/16 06:39:08;;;;;;;;;;;4.30;99.90;;;;;;5069141;28;19928;-79
2023/03/16 06:41:34;;;;;;;;;;;4.30;99.90;;;;;;5104138;27;20415;-78
2023/03/16 06:44:00;;;;;;;;;;;4.30;99.90;;;;;;5099033;28;20394;-78
2023/03/16 06:46:26;;;;;;;;;;;4.40;99.90;;;;;;5088307;28;19959;-79
2023/03/16 06:48:51;;;;;;;;;;;4.40;99.90;;;;;;5104714;28;19945;-79
2023/03/16 06:51:17;;;;;;;;;;;4.50;99.90;;;;;;5087754;28;19935;-79
2023/03/16 06:53:43;;;;;;;;;;;4.50;99.90;;;;;;5104493;28;20000;-79
2023/03/16 06:56:08;;;;;;;;;;;4.60;99.90;;;;;;5088094;28;20776;-79
2023/03/16 06:58:34;;;;;;;;;;;4.60;99.90;;;;;;5084915;28;20425;-79
2023/03/16 07:01:00;;;;;;;;;;;4.60;99.90;;;;;;5058863;28;20475;-78
2023/03/16 07:03:26;;;;;;;;;;;4.60;99.90;;;;;;5079006;28;19985;-78
2023/03/16 07:05:51;;;;;;;;;;;4.70;99.90;;;;;;5099507;27;20093;-78
2023/03/16 07:08:17;;;;;;;;;;;4.70;99.90;;;;;;5057948;28;19924;-76
2023/03/16 07:10:42;;;;;;;;;;;4.70;99.90;;;;;;5067212;28;19966;-76
2023/03/16 07:13:08;;;;;;;;;;;4.80;99.90;;;;;;5089947;27;19928;-77
2023/03/16 07:15:33;;;;;;;;;;;4.80;99.90;;;;;;5093117;28;20338;-77
2023/03/16 07:17:59;;;;;;;;;;;4.80;99.90;;;;;;5100936;28;20042;-77
2023/03/16 07:20:27;;;;;;;;;;;4.80;99.90;;;;;;5075446;27;19923;-79
2023/03/16 07:22:52;;;;;;;;;;;4.80;99.90;;;;;;5094208;28;19943;-79
2023/03/16 07:25:18;;;;;;;;;;;4.90;99.90;;;;;;5107654;28;19924;-79
2023/03/16 07:27:46;;;;;;;;;;;4.90;99.90;;;;;;5084973;28;20019;-79
2023/03/16 07:30:13;;;;;;;;;;;4.90;99.90;;;;;;5062961;28;19928;-79
2023/03/16 07:32:40;;;;;;;;;;;4.90;99.90;;;;;;5128067;27;19973;-79
2023/03/16 07:35:06;;;;;;;;;;;4.90;99.90;;;;;;5121691;28;19924;-79
2023/03/16 07:37:33;;;;;;;;;;;5.00;99.90;;;;;;5084611;27;20014;-79
2023/03/16 07:39:59;;;;;;;;;;;5.00;99.90;;;;;;5074376;28;19968;-79
2023/03/16 07:42:25;;;;;;;;;;;5.00;99.90;;;;;;5086072;28;20057;-79
2023/03/16 07:44:50;;;;;;;;;;;5.10;99.90;;;;;;5069046;28;19934;-79
2023/03/16 07:47:16;;;;;;;;;;;5.20;99.90;;;;;;5109394;28;19924;-79
2023/03/16 07:49:43;;;;;;;;;;;5.20;99.90;;;;;;5102280;28;19943;-79
2023/03/16 07:52:12;;;;;;;;;;;5.20;99.90;;;;;;5079238;27;19923;-79
2023/03/16 07:54:39;;;;;;;;;;;5.20;99.90;;;;;;5080705;27;19923;-79
2023/03/16 07:57:05;;;;;;;;;;;5.20;99.90;;;;;;5080169;28;19924;-80
2023/03/16 07:59:30;;;;;;;;;;;5.20;99.90;;;;;;5093689;28;19924;-79
2023/03/16 08:01:56;;;;;;;;;;;5.30;99.90;;;;;;5101951;28;19928;-78
2023/03/16 08:04:22;;;;;;;;;;;5.20;99.90;;;;;;5098681;28;19939;-79
2023/03/16 08:06:47;;;;;;;;;;;5.30;99.90;;;;;;5083807;28;19928;-79
2023/03/16 08:09:13;;;;;;;;;;;5.20;99.90;;;;;;5073644;28;19971;-78
2023/03/16 08:11:38;;;;;;;;;;;5.20;99.90;;;;;;5097954;27;19932;-79
2023/03/16 08:14:04;;;;;;;;;;;5.20;99.90;;;;;;5071510;28;19928;-78
2023/03/16 08:16:30;;;;;;;;;;;5.10;99.90;;;;;;5080464;28;19930;-78
2023/03/16 08:18:56;;;;;;;;;;;5.10;99.90;;;;;;5085285;28;19962;-79
2023/03/16 08:21:22;;;;;;;;;;;5.10;99.90;;;;;;5085309;28;19924;-79
2023/03/16 08:23:49;;;;;;;;;;;5.10;99.90;;;;;;5086952;27;19924;-79
2023/03/16 08:26:18;;;;;;;;;;;5.10;99.90;;;;;;5081718;27;20512;-79
2023/03/16 08:28:45;;;;;;;;;;;5.10;99.90;;;;;;5104694;28;20010;-79
2023/03/16 08:31:12;;;;;;;;;;;5.10;99.90;;;;;;5064033;28;19978;-79
2023/03/16 08:33:38;;;;;;;;;;;5.10;99.90;;;;;;5085767;28;20368;-79
2023/03/16 08:36:05;;;;;;;;;;;5.10;99.90;;;;;;5065258;28;19939;-79
2023/03/16 08:38:31;;;;;;;;;;;5.10;99.90;;;;;;5116477;27;19950;-78
2023/03/16 08:40:57;;;;;;;;;;;5.10;99.90;;;;;;5080272;28;19924;-78
2023/03/16 08:43:22;;;;;;;;;;;5.10;99.90;;;;;;5074015;28;20085;-78
2023/03/16 08:45:49;;;;;;;;;;;5.10;99.90;;;;;;5066143;28;19927;-78
2023/03/16 08:48:15;;;;;;;;;;;5.20;99.90;;;;;;5104230;28;19994;-78
2023/03/16 08:50:42;;;;;;;;;;;5.20;99.90;;;;;;5063577;28;19924;-79
2023/03/16 08:53:08;;;;;;;;;;;5.20;99.90;;;;;;5095057;28;20456;-78
2023/03/16 08:55:34;;;;;;;;;;;5.20;99.90;;;;;;5114938;28;20441;-79
2023/03/16 08:58:00;;;;;;;;;;;5.20;99.90;;;;;;5102061;28;19923;-78
2023/03/16 09:00:27;;;;;;;;;;;5.20;99.90;;;;;;5119740;28;19931;-78
2023/03/16 09:02:54;;;;;;;;;;;5.20;99.90;;;;;;5088788;28;19927;-79
2023/03/16 09:05:20;;;;;;;;;;;5.20;99.90;;;;;;5084585;28;19930;-79
2023/03/16 09:07:46;;;;;;;;;;;5.20;99.90;;;;;;5078128;28;20631;-78
2023/03/16 09:10:14;;;;;;;;;;;5.20;99.90;;;;;;5112177;28;19924;-78
2023/03/16 09:12:41;;;;;;;;;;;5.30;99.90;;;;;;5083772;28;20461;-75
2023/03/16 09:15:09;;;;;;;;;;;5.30;99.90;;;;;;5088839;28;19923;-76
2023/03/16 09:17:35;;;;;;;;;;;5.30;99.90;;;;;;5127087;27;19938;-77
2023/03/16 09:20:01;;;;;;;;;;;5.40;99.90;;;;;;5085792;28;20010;-78
2023/03/16 09:22:27;;;;;;;;;;;5.40;99.90;;;;;;5108831;27;19924;-78
2023/03/16 09:24:53;;;;;;;;;;;5.40;99.90;;;;;;5078395;28;19969;-77
2023/03/16 09:27:19;;;;;;;;;;;5.40;99.90;;;;;;5089547;28;19923;-77
2023/03/16 09:29:45;;;;;;;;;;;5.50;99.90;;;;;;5113222;28;20400;-78
2023/03/16 09:32:11;;;;;;;;;;;5.50;99.90;;;;;;5083031;28;19934;-77
2023/03/16 09:34:37;;;;;;;;;;;5.50;99.90;;;;;;5077745;28;20011;-78
2023/03/16 09:37:02;;;;;;;;;;;5.60;99.90;;;;;;5084822;28;19971;-78
2023/03/16 09:39:28;;;;;;;;;;;5.60;99.90;;;;;;5079198;27;19928;-78
2023/03/16 09:41:53;;;;;;;;;;;5.60;99.90;;;;;;5087615;28;19924;-78
2023/03/16 09:44:38;;;;;;;;;;;5.70;99.90;;;;;;5088245;28;19928;-78
2023/03/16 09:47:05;;;;;;;;;;;5.70;99.90;;;;;;5116486;28;19924;-77
2023/03/16 09:49:34;;;;;;;;;;;5.70;99.90;;;;;;5070475;28;20386;-78
2023/03/16 09:52:18;;;;;;;;;;;5.70;99.90;;;;;;5123969;27;19931;-78
2023/03/16 09:55:02;;;;;;;;;;;5.80;99.90;;;;;;5108294;28;19931;-77
2023/03/16 09:57:30;;;;;;;;;;;5.70;99.90;;;;;;5116906;28;20409;-78
2023/03/16 09:59:59;;;;;;;;;;;5.80;99.90;;;;;;5102870;28;19924;-78
2023/03/16 10:02:36;;;;;;;;;;;5.80;99.90;;;;;;5107409;28;19935;-79
2023/03/16 10:05:01;;;;;;;;;;;5.80;99.90;;;;;;5113396;28;19930;-79
2023/03/16 10:07:27;;;;;;;;;;;5.80;99.90;;;;;;5084984;27;19946;-79
2023/03/16 10:09:58;;;;;;;;;;;5.80;99.90;;;;;;5096587;28;19969;-79
2023/03/16 10:12:36;;;;;;;;;;;5.80;99.90;;;;;;5113028;27;19967;-79
2023/03/16 10:15:05;;;;;;;;;;;5.90;99.90;;;;;;5099982;28;19924;-80
2023/03/16 10:17:36;;;;;;;;;;;5.90;99.90;;;;;;5086511;28;19924;-80
2023/03/16 10:20:10;;;;;;;;;;;5.90;99.90;;;;;;5074123;28;19991;-82
2023/03/16 10:22:41;;;;;;;;;;;6.00;99.90;;;;;;5080759;28;19928;-83
2023/03/16 10:25:13;;;;;;;;;;;6.00;99.90;;;;;;5072773;28;19936;-83
2023/03/16 10:27:40;;;;;;;;;;;6.00;99.90;;;;;;5077499;28;19924;-83
2023/03/16 10:30:17;;;;;;;;;;;6.10;99.90;;;;;;5086312;28;19983;-83
2023/03/16 10:32:43;;;;;;;;;;;6.20;99.90;;;;;;5103265;28;19927;-83
2023/03/16 10:35:29;;;;;;;;;;;6.20;99.90;;;;;;5082307;28;19946;-82
2023/03/16 10:37:56;;;;;;;;;;;6.30;99.90;;;;;;5071512;28;19924;-82
2023/03/16 10:40:22;;;;;;;;;;;6.40;99.90;;;;;;5071069;28;19924;-82
2023/03/16 10:42:48;;;;;;;;;;;6.40;99.90;;;;;;5065047;28;19969;-82
2023/03/16 10:45:23;;;;;;;;;;;6.40;99.90;;;;;;5099013;28;19924;-82
2023/03/16 10:47:48;;;;;;;;;;;6.50;99.90;;;;;;5100375;28;19928;-82
2023/03/16 10:50:19;;;;;;;;;;;6.50;99.90;;;;;;5086668;28;19931;-82
2023/03/16 10:52:47;;;;;;;;;;;6.50;99.90;;;;;;5087551;28;19978;-82
2023/03/16 10:55:15;;;;;;;;;;;6.50;99.90;;;;;;5068154;28;20374;-81
2023/03/16 10:57:42;;;;;;;;;;;6.50;99.90;;;;;;5076973;28;19928;-81
2023/03/16 11:00:14;;;;;;;;;;;6.50;99.90;;;;;;5074798;28;20372;-81
2023/03/16 11:02:39;;;;;;;;;;;6.60;99.90;;;;;;5098020;28;20009;-81
2023/03/16 11:05:12;;;;;;;;;;;6.60;99.90;;;;;;5065866;28;19999;-82
2023/03/16 11:07:38;;;;;;;;;;;6.60;99.90;;;;;;5065547;28;19924;-81
2023/03/16 11:10:12;;;;;;;;;;;6.70;99.90;;;;;;5066843;28;20574;-81
2023/03/16 11:12:38;;;;;;;;;;;6.70;99.90;;;;;;5073623;28;19928;-81
2023/03/16 11:15:12;;;;;;;;;;;6.70;99.90;;;;;;5073594;28;19982;-81
2023/03/16 11:17:40;;;;;;;;;;;6.90;99.90;;;;;;5074455;28;19937;-81
2023/03/16 11:20:17;;;;;;;;;;;6.90;99.90;;;;;;5089335;28;20042;-81
2023/03/16 11:22:47;;;;;;;;;;;7.00;99.90;;;;;;5076272;28;20322;-81
2023/03/16 11:25:16;;;;;;;;;;;7.10;99.90;;;;;;5088583;28;20384;-81
2023/03/16 11:28:00;;;;;;;;;;;7.20;99.90;;;;;;5096616;28;19931;-81
2023/03/16 11:30:45;;;;;;;;;;;7.20;99.90;;;;;;5086066;28;19928;-80
2023/03/16 11:33:11;;;;;;;;;;;7.30;99.90;;;;;;5102944;28;19931;-81
2023/03/16 11:35:43;;;;;;;;;;;7.40;99.90;;;;;;5072686;28;20390;-81
2023/03/16 11:38:12;;;;;;;;;;;7.50;99.90;;;;;;5076765;28;19924;-80
2023/03/16 11:40:40;;;;;;;;;;;7.60;99.90;;;;;;5130856;27;20383;-81
2023/03/16 11:43:13;;;;;;;;;;;7.70;99.90;;;;;;5091194;28;19924;-81
2023/03/16 11:45:42;;;;;;;;;;;7.80;99.90;;;;;;5123330;27;20651;-80
2023/03/16 11:48:14;;;;;;;;;;;7.90;99.90;;;;;;5089760;27;19924;-80
2023/03/16 11:50:46;;;;;;;;;;;8.00;99.90;;;;;;5076360;28;19935;-80
2023/03/16 11:53:12;;;;;;;;;;;8.20;99.90;;;;;;5104679;28;20057;-80
2023/03/16 11:55:49;;;;;;;;;;;8.30;99.90;;;;;;5082633;28;19923;-81
2023/03/16 11:58:38;;;;;;;;;;;8.40;99.90;;;;;;5063859;28;19949;-81
2023/03/16 12:01:13;;;;;;;;;;;8.40;99.90;;;;;;5053412;28;20328;-81
2023/03/16 12:03:45;;;;;;;;;;;8.50;99.90;;;;;;5077305;28;19989;-80
2023/03/16 12:06:23;;;;;;;;;;;8.60;99.90;;;;;;5073942;28;19954;-81
2023/03/16 12:08:57;;;;;;;;;;;8.70;99.90;;;;;;5106417;28;19932;-80
2023/03/16 12:11:23;;;;;;;;;;;8.90;99.90;;;;;;5100963;28;19950;-80
2023/03/16 12:13:52;;;;;;;;;;;9.00;99.90;;;;;;5129635;27;20481;-80
2023/03/16 12:16:41;;;;;;;;;;;9.10;99.90;;;;;;5088584;28;19934;-80
2023/03/16 12:19:13;;;;;;;;;;;9.00;99.90;;;;;;5069823;28;19928;-81
2023/03/16 12:21:41;;;;;;;;;;;9.00;99.90;;;;;;5087007;28;19924;-80
2023/03/16 12:24:27;;;;;;;;;;;8.90;99.90;;;;;;5109023;28;19935;-80
2023/03/16 12:26:53;;;;;;;;;;;8.90;99.90;;;;;;5075517;28;19932;-81
2023/03/16 12:29:34;;;;;;;;;;;8.90;99.90;;;;;;5089768;28;19932;-80
2023/03/16 12:32:09;;;;;;;;;;;8.90;99.90;;;;;;5072939;28;19924;-81
2023/03/16 12:34:55;;;;;;;;;;;9.00;99.90;;;;;;5124245;27;19924;-80
2023/03/16 12:37:26;;;;;;;;;;;9.00;99.90;;;;;;5069501;28;19968;-81
2023/03/16 12:40:14;;;;;;;;;;;9.00;99.90;;;;;;5083332;28;20407;-80
2023/03/16 12:43:15;;;;;;;;;;;9.10;99.90;;;;;;5059914;28;19924;-80
2023/03/16 12:45:43;;;;;;;;;;;9.10;99.90;;;;;;5029863;28;19925;-80
2023/03/16 12:48:09;;;;;;;;;;;9.10;99.90;;;;;;5056467;28;19924;-80
2023/03/16 12:50:45;;;;;;;;;;;9.10;99.90;;;;;;5089597;28;19951;-81
2023/03/16 12:53:23;;;;;;;;;;;9.00;99.90;;;;;;5121474;28;20002;-81
2023/03/16 12:55:49;;;;;;;;;;;9.00;99.90;;;;;;5106957;28;19952;-80
2023/03/16 12:58:16;;;;;;;;;;;9.10;99.90;;;;;;5071240;28;19983;-81
2023/03/16 13:00:42;;;;;;;;;;;9.00;99.90;;;;;;5090887;28;19932;-80
2023/03/16 13:03:14;;;;;;;;;;;9.10;99.90;;;;;;5073980;28;19931;-80
2023/03/16 13:05:49;;;;;;;;;;;9.10;99.90;;;;;;5095094;28;19963;-81
2023/03/16 13:08:16;;;;;;;;;;;9.20;99.90;;;;;;5088605;28;20002;-80
2023/03/16 13:10:57;;;;;;;;;;;9.20;99.90;;;;;;5075054;28;19973;-81
2023/03/16 13:13:24;;;;;;;;;;;9.30;99.90;;;;;;5086368;28;19957;-80
2023/03/16 13:16:00;;;;;;;;;;;9.40;99.90;;;;;;5087152;28;19935;-81
2023/03/16 13:18:32;;;;;;;;;;;9.50;99.90;;;;;;5097451;28;19935;-81
2023/03/16 13:20:59;;;;;;;;;;;9.70;99.90;;;;;;5084808;28;19931;-80
2023/03/16 13:23:48;;;;;;;;;;;9.90;99.90;;;;;;5075681;28;19924;-80
2023/03/16 13:26:15;;;;;;;;;;;10.10;99.90;;;;;;5097562;28;20306;-80
2023/03/16 13:28:44;;;;;;;;;;;10.30;99.90;;;;;;5110438;28;19930;-81
2023/03/16 13:31:21;;;;;;;;;;;10.40;99.90;;;;;;5086314;28;19923;-81
2023/03/16 13:33:47;;;;;;;;;;;10.60;99.90;;;;;;5094817;28;19924;-81
2023/03/16 13:36:13;;;;;;;;;;;10.70;99.90;;;;;;5088052;28;19934;-81
2023/03/16 13:38:39;;;;;;;;;;;10.80;99.90;;;;;;5055691;28;19924;-81
2023/03/16 13:41:09;;;;;;;;;;;10.90;99.90;;;;;;5067815;28;19971;-81
2023/03/16 13:43:37;;;;;;;;;;;11.00;99.90;;;;;;5071843;28;19931;-81
2023/03/16 13:46:13;;;;;;;;;;;11.00;99.90;;;;;;5080238;28;19931;-81
2023/03/16 13:48:40;;;;;;;;;;;10.90;99.90;;;;;;5074803;28;20420;-81
2023/03/16 13:51:10;;;;;;;;;;;10.80;99.90;;;;;;5070319;28;19932;-81
2023/03/16 13:53:39;;;;;;;;;;;10.80;99.90;;;;;;5073246;28;19969;-80
2023/03/16 13:56:04;;;;;;;;;;;10.80;99.90;;;;;;5078091;28;19928;-81
2023/03/16 13:58:32;;;;;;;;;;;10.70;99.90;;;;;;5074884;28;19928;-80
2023/03/16 14:01:03;;;;;;;;;;;10.70;99.90;;;;;;5093554;28;19959;-80
2023/03/16 14:03:31;;;;;;;;;;;10.70;99.90;;;;;;5077058;28;19924;-80
2023/03/16 14:05:57;;;;;;;;;;;10.70;99.90;;;;;;5100493;28;19928;-80
2023/03/16 14:08:23;;;;;;;;;;;10.70;99.90;;;;;;5098216;28;19934;-80
2023/03/16 14:10:49;;;;;;;;;;;10.70;99.90;;;;;;5061773;28;19962;-80
2023/03/16 14:13:27;;;;;;;;;;;10.70;99.90;;;;;;5098947;28;20010;-80
2023/03/16 14:15:59;;;;;;;;;;;10.70;99.90;;;;;;5103906;27;19932;-79
2023/03/16 14:18:31;;;;;;;;;;;10.70;99.90;;;;;;5074749;28;20413;-80
2023/03/16 14:20:56;;;;;;;;;;;10.70;99.90;;;;;;5079049;28;19924;-80
2023/03/16 14:23:33;;;;;;;;;;;10.80;99.90;;;;;;5061382;28;19951;-81
2023/03/16 14:25:58;;;;;;;;;;;10.90;99.90;;;;;;5110945;28;19924;-80
2023/03/16 14:28:29;;;;;;;;;;;11.00;99.90;;;;;;5067042;28;19924;-80
2023/03/16 14:31:01;;;;;;;;;;;11.10;99.10;;;;;;5092557;28;19928;-81
2023/03/16 14:33:28;;;;;;;;;;;11.20;99.90;;;;;;5074245;27;19977;-80